Time;durP1;ratioP1;P1;durP2;ratioP2;P2;SDS_P1;SDS_P2;PMS_P1;PMS_P2;Temp;Humidity;BMP_temperature;BMP_pressure;BME280_temperature;BME280_humidity;BME280_pressure;Samples;Min_cycle;Max_cycle;Signal;HPM_P1;HPM_P2
2021/09/24 00:02:20;;;;;;;7.40;5.25;;;16.40;67.80;;;16.27;53.42;94719.97;5016582;28;20227;-80
2021/09/24 00:04:48;;;;;;;5.03;4.40;;;16.40;68.00;;;16.28;52.88;94708.34;5016765;28;20210;-81
2021/09/24 00:07:16;;;;;;;5.93;5.07;;;16.50;67.80;;;16.32;53.38;94711.34;5038090;28;20251;-81
2021/09/24 00:09:43;;;;;;;6.35;4.60;;;16.50;67.90;;;16.34;52.98;94706.59;5032595;28;20219;-81
2021/09/24 00:12:10;;;;;;;5.75;4.85;;;16.50;67.70;;;16.35;52.91;94715.34;5016446;28;20243;-80
2021/09/24 00:14:37;;;;;;;6.68;4.53;;;16.50;67.80;;;16.35;52.70;94710.06;5015855;28;20198;-80
2021/09/24 00:17:05;;;;;;;5.05;4.43;;;16.60;67.90;;;16.36;53.10;94701.09;5037481;28;20216;-80
2021/09/24 00:19:32;;;;;;;5.90;4.65;;;16.50;67.80;;;16.39;52.68;94703.25;5032508;28;20307;-81
2021/09/24 00:22:00;;;;;;;5.03;4.13;;;16.50;67.60;;;16.34;52.69;94693.38;5015989;28;20228;-80
2021/09/24 00:24:27;;;;;;;4.85;3.80;;;16.50;67.50;;;16.39;52.54;94695.31;5048347;28;20215;-80
2021/09/24 00:26:54;;;;;;;4.75;4.13;;;16.50;67.50;;;16.33;52.49;94700.50;5047905;28;20341;-80
2021/09/24 00:29:21;;;;;;;5.00;4.18;;;16.70;67.60;;;16.31;52.36;94709.72;5032576;28;20227;-81
2021/09/24 00:31:48;;;;;;;6.10;4.30;;;16.50;67.50;;;16.27;52.98;94693.50;5032249;28;20208;-80
2021/09/24 00:34:16;;;;;;;4.43;4.03;;;16.60;67.60;;;16.25;52.50;94684.19;5048040;28;20299;-81
2021/09/24 00:36:43;;;;;;;6.10;4.45;;;16.50;67.50;;;16.22;52.73;94682.00;5033006;28;20381;-81
2021/09/24 00:39:10;;;;;;;5.80;4.38;;;16.50;67.60;;;16.20;52.89;94674.31;5032501;28;20195;-81
2021/09/24 00:41:37;;;;;;;5.65;4.57;;;16.50;67.70;;;16.15;52.82;94671.56;5015867;28;20258;-80
2021/09/24 00:44:05;;;;;;;5.60;4.43;;;16.40;67.50;;;16.12;52.79;94674.66;5032235;28;20287;-80
2021/09/24 00:46:32;;;;;;;5.57;4.53;;;16.40;67.60;;;16.11;53.09;94689.72;5016318;28;20318;-79
2021/09/24 00:49:15;;;;;;;5.88;4.80;;;16.40;67.60;;;16.10;52.91;94684.66;5037627;28;20207;-80
2021/09/24 00:51:42;;;;;;;5.45;4.70;;;16.40;67.70;;;16.08;53.19;94679.59;5018863;28;20217;-80
2021/09/24 00:54:09;;;;;;;5.88;4.90;;;16.40;67.70;;;16.07;52.73;94667.41;5018812;28;20665;-81
2021/09/24 00:56:37;;;;;;;4.60;4.10;;;16.30;67.70;;;16.03;53.34;94676.03;5030850;28;20220;-79
2021/09/24 00:59:04;;;;;;;5.28;4.68;;;16.30;67.70;;;16.01;53.18;94668.34;5015697;28;20199;-81
2021/09/24 01:01:31;;;;;;;4.07;3.67;;;16.30;67.80;;;16.01;52.79;94670.97;5048436;28;20582;-81
2021/09/24 01:03:59;;;;;;;4.93;4.43;;;16.30;67.80;;;16.00;52.97;94672.84;5048365;28;20646;-81
2021/09/24 01:06:26;;;;;;;6.13;4.28;;;16.20;67.80;;;15.99;53.15;94662.47;5018551;28;20219;-80
2021/09/24 01:08:53;;;;;;;5.47;4.22;;;16.30;68.10;;;15.97;52.92;94665.34;5015532;28;20735;-81
2021/09/24 01:11:21;;;;;;;6.25;4.53;;;16.30;68.00;;;15.95;53.25;94671.91;5012384;28;20666;-81
2021/09/24 01:13:49;;;;;;;4.93;4.07;;;16.30;68.10;;;15.94;53.39;94665.81;5015618;28;20203;-80
2021/09/24 01:16:16;;;;;;;5.38;4.38;;;16.20;68.00;;;15.87;54.06;94674.88;5028597;28;20220;-80
2021/09/24 01:18:43;;;;;;;4.88;4.25;;;16.20;68.20;;;15.89;53.42;94678.13;5031754;28;20195;-81
2021/09/24 01:21:11;;;;;;;4.50;4.05;;;16.20;68.10;;;15.87;53.37;94677.53;5015137;28;20212;-80
2021/09/24 01:23:39;;;;;;;5.95;4.45;;;16.10;68.10;;;15.86;53.60;94678.59;5031582;28;20200;-81
2021/09/24 01:26:07;;;;;;;4.70;4.10;;;16.10;68.20;;;15.82;53.41;94683.50;5040113;28;20242;-80
2021/09/24 01:28:34;;;;;;;5.85;4.20;;;16.10;68.20;;;15.83;53.67;94679.84;5031456;28;20235;-80
2021/09/24 01:31:02;;;;;;;4.68;4.18;;;16.10;68.30;;;15.82;53.26;94675.56;5048271;28;20207;-81
2021/09/24 01:33:29;;;;;;;5.72;4.15;;;16.10;68.20;;;15.79;53.48;94678.66;5031950;28;20192;-80
2021/09/24 01:35:57;;;;;;;6.60;4.60;;;16.10;68.20;;;15.76;54.09;94679.94;5014801;28;20773;-80
2021/09/24 01:38:24;;;;;;;5.47;4.22;;;16.00;68.40;;;15.74;53.91;94681.19;5032379;28;20290;-81
2021/09/24 01:40:52;;;;;;;5.35;4.80;;;16.00;68.40;;;15.71;54.20;94674.53;5014822;28;20251;-80
2021/09/24 01:43:19;;;;;;;7.00;4.82;;;16.00;68.60;;;15.69;54.13;94684.53;5015144;28;20599;-79
2021/09/24 01:45:46;;;;;;;5.38;4.05;;;16.00;68.50;;;15.67;53.97;94681.31;5020638;28;20208;-80
2021/09/24 01:48:13;;;;;;;4.68;4.20;;;16.00;68.60;;;15.64;54.11;94693.13;5014903;28;20258;-80
2021/09/24 01:50:40;;;;;;;4.35;3.92;;;15.90;68.60;;;15.62;54.10;94689.13;5014965;28;20290;-81
2021/09/24 01:53:08;;;;;;;5.20;4.25;;;15.90;68.60;;;15.59;54.23;94687.75;5014784;28;20196;-80
2021/09/24 01:55:35;;;;;;;4.68;4.20;;;15.90;68.80;;;15.59;54.38;94681.66;5031768;28;20342;-80
2021/09/24 01:58:02;;;;;;;6.28;4.45;;;15.90;68.80;;;15.57;54.45;94684.50;5031252;28;20207;-81
2021/09/24 02:00:29;;;;;;;6.20;4.70;;;15.80;68.60;;;15.55;54.10;94681.31;5014636;28;20211;-81
2021/09/24 02:02:57;;;;;;;5.45;4.60;;;15.90;68.90;;;15.55;54.37;94689.25;5026149;28;20238;-80
2021/09/24 02:05:25;;;;;;;5.43;4.70;;;15.80;68.80;;;15.51;54.89;94696.81;5045650;28;20195;-79
2021/09/24 02:07:52;;;;;;;5.45;4.50;;;15.80;69.20;;;15.49;55.13;94698.06;5030145;28;20531;-79
2021/09/24 02:10:19;;;;;;;4.70;4.30;;;15.80;69.20;;;15.49;54.79;94698.88;5044978;28;20239;-80
2021/09/24 02:12:46;;;;;;;5.32;4.43;;;15.80;69.10;;;15.46;54.75;94696.69;5027744;28;20188;-79
2021/09/24 02:15:15;;;;;;;6.22;4.32;;;15.70;69.20;;;15.46;54.73;94704.59;5019524;28;20590;-79
2021/09/24 02:17:43;;;;;;;5.50;4.47;;;15.80;69.20;;;15.43;54.51;94701.59;5027750;28;20200;-79
2021/09/24 02:20:11;;;;;;;5.43;4.75;;;15.80;69.30;;;15.41;55.04;94706.34;4996484;28;20188;-80
2021/09/24 02:22:38;;;;;;;5.35;4.22;;;15.70;69.30;;;15.38;55.18;94702.31;5029145;28;20609;-80
2021/09/24 02:25:06;;;;;;;6.28;4.97;;;15.80;69.40;;;15.36;55.58;94691.94;5013274;28;20559;-81
2021/09/24 02:27:33;;;;;;;5.53;4.32;;;15.70;69.60;;;15.36;55.55;94702.53;5045177;28;20223;-80
2021/09/24 02:30:00;;;;;;;6.45;4.65;;;15.60;69.60;;;15.35;55.66;94700.91;5028955;28;20222;-81
2021/09/24 02:32:27;;;;;;;6.00;4.70;;;15.60;69.60;;;15.37;55.55;94700.69;5028885;28;20243;-80
2021/09/24 02:34:54;;;;;;;6.13;4.53;;;15.60;69.60;;;15.36;55.32;94707.00;5012554;28;20299;-81
2021/09/24 02:37:22;;;;;;;7.30;4.82;;;15.60;69.60;;;15.35;55.83;94713.31;5032171;28;20686;-80
2021/09/24 02:39:49;;;;;;;5.65;4.20;;;15.60;69.80;;;15.36;55.44;94712.28;5014146;28;20250;-81
2021/09/24 02:42:16;;;;;;;5.25;4.28;;;15.60;69.80;;;15.31;55.30;94704.25;5031153;28;20204;-79
2021/09/24 02:44:44;;;;;;;5.97;4.68;;;15.70;69.70;;;15.30;55.81;94710.56;5014223;28;20224;-80
2021/09/24 02:47:11;;;;;;;4.65;4.22;;;15.60;69.80;;;15.29;55.95;94707.09;5030324;28;20216;-81
2021/09/24 02:49:38;;;;;;;5.85;4.82;;;15.60;69.90;;;15.29;56.68;94717.66;5030432;28;20247;-80
2021/09/24 02:52:07;;;;;;;4.95;4.25;;;15.60;70.40;;;15.35;55.92;94715.97;5040677;28;20215;-80
2021/09/24 02:54:34;;;;;;;5.63;4.53;;;15.60;70.40;;;15.39;56.40;94724.25;5033925;28;20281;-80
2021/09/24 02:57:01;;;;;;;5.07;4.20;;;15.60;70.50;;;15.37;56.19;94709.41;5034371;28;20274;-80
2021/09/24 02:59:28;;;;;;;6.07;4.25;;;15.60;70.40;;;15.44;55.82;94716.44;5021266;28;20205;-81
2021/09/24 03:01:57;;;;;;;7.60;4.50;;;15.60;70.30;;;15.44;56.27;94719.09;5051873;28;20742;-80
2021/09/24 03:04:26;;;;;;;6.25;4.50;;;15.70;70.40;;;15.46;56.05;94717.81;5021531;28;20219;-80
2021/09/24 03:06:53;;;;;;;5.32;4.45;;;15.70;70.60;;;15.48;56.75;94726.34;5053569;28;20220;-80
2021/09/24 03:09:20;;;;;;;5.25;4.40;;;15.60;70.60;;;15.53;56.33;94718.53;5037361;28;20219;-80
2021/09/24 03:11:47;;;;;;;5.47;4.63;;;15.70;70.70;;;15.58;55.97;94717.06;5017115;28;20208;-81
2021/09/24 03:14:15;;;;;;;4.97;4.22;;;15.70;70.70;;;15.64;55.83;94722.22;5025445;28;20196;-80
2021/09/24 03:16:42;;;;;;;6.90;4.95;;;15.80;70.90;;;15.69;56.65;94726.84;5020674;28;20218;-80
2021/09/24 03:19:10;;;;;;;6.32;5.10;;;15.80;71.10;;;15.76;56.30;94724.88;5053642;28;20215;-81
2021/09/24 03:21:38;;;;;;;7.47;4.38;;;15.80;71.00;;;15.84;56.83;94739.63;5052901;28;20219;-79
2021/09/24 03:24:05;;;;;;;5.20;4.70;;;15.90;71.10;;;15.92;56.36;94730.56;5033609;28;20240;-80
2021/09/24 03:26:33;;;;;;;5.28;4.55;;;15.90;71.10;;;16.00;56.59;94741.59;5017010;28;20665;-80
2021/09/24 03:29:01;;;;;;;5.25;4.65;;;16.00;71.20;;;16.06;56.05;94729.28;5034666;28;20270;-80
2021/09/24 03:31:28;;;;;;;6.38;4.50;;;16.20;71.20;;;16.13;56.04;94727.31;5033480;28;20223;-81
2021/09/24 03:33:56;;;;;;;5.07;4.20;;;16.20;71.00;;;16.18;56.30;94734.56;5034112;28;20200;-81
2021/09/24 03:36:23;;;;;;;8.52;4.70;;;16.20;70.90;;;16.22;56.29;94733.09;5017082;28;20645;-80
2021/09/24 03:38:50;;;;;;;6.07;4.50;;;16.20;71.00;;;16.26;55.72;94736.06;5033635;28;20200;-80
2021/09/24 03:41:18;;;;;;;4.57;4.10;;;16.30;70.90;;;16.29;55.89;94748.84;5037288;28;20221;-80
2021/09/24 03:43:45;;;;;;;4.78;4.28;;;16.40;70.80;;;16.31;55.67;94736.97;5053405;28;20218;-80
2021/09/24 03:46:12;;;;;;;7.47;4.47;;;16.40;70.70;;;16.33;55.46;94748.16;5053061;28;20223;-80
2021/09/24 03:48:40;;;;;;;5.78;4.60;;;16.40;70.60;;;16.35;55.76;94744.47;5020199;28;20199;-81
2021/09/24 03:51:07;;;;;;;6.38;4.55;;;16.50;70.60;;;16.37;55.50;94743.19;5036086;28;20688;-79
2021/09/24 03:53:35;;;;;;;4.95;4.30;;;16.50;70.50;;;16.35;55.52;94750.56;5036699;28;20195;-80
2021/09/24 03:56:03;;;;;;;5.40;4.55;;;16.60;70.50;;;16.32;55.28;94743.09;5036666;28;20230;-81
2021/09/24 03:58:30;;;;;;;6.57;4.82;;;16.50;70.30;;;16.26;55.52;94746.66;5070053;28;20192;-80
2021/09/24 04:00:57;;;;;;;5.60;4.43;;;16.50;70.40;;;16.26;55.38;94742.16;5035993;28;20223;-80
2021/09/24 04:03:25;;;;;;;6.53;4.68;;;16.50;70.30;;;16.22;55.99;94750.81;5016352;28;20291;-79
2021/09/24 04:05:52;;;;;;;5.28;4.55;;;16.50;70.30;;;16.24;55.77;94748.72;5016702;28;20604;-81
2021/09/24 04:08:20;;;;;;;6.60;5.13;;;16.50;70.40;;;16.23;56.34;94742.63;5019118;28;20241;-80
2021/09/24 04:10:48;;;;;;;5.47;4.45;;;16.50;70.60;;;16.25;55.69;94748.50;5052422;28;20235;-80
2021/09/24 04:13:15;;;;;;;5.03;4.50;;;16.40;70.40;;;16.25;56.02;94737.13;5005847;28;20287;-82
2021/09/24 04:15:42;;;;;;;5.88;4.53;;;16.50;70.60;;;16.25;56.14;94756.44;5032572;28;20223;-80
2021/09/24 04:18:09;;;;;;;4.80;4.20;;;16.40;70.50;;;16.27;55.63;94762.31;5032774;28;20189;-80
2021/09/24 04:20:37;;;;;;;4.32;3.80;;;16.40;70.30;;;16.24;55.21;94754.81;5032638;28;20223;-80
2021/09/24 04:23:04;;;;;;;5.07;4.57;;;16.40;70.30;;;16.27;55.41;94750.91;5016565;28;20212;-80
2021/09/24 04:25:31;;;;;;;4.97;4.32;;;16.40;70.20;;;16.28;55.39;94760.47;5016250;28;20220;-81
2021/09/24 04:27:59;;;;;;;7.50;4.40;;;16.40;70.30;;;16.27;55.58;94748.25;5035884;28;20197;-80
2021/09/24 04:30:26;;;;;;;5.63;4.80;;;16.50;70.30;;;16.26;55.86;94742.16;5032213;28;20212;-80
2021/09/24 04:32:53;;;;;;;5.00;4.50;;;16.40;70.20;;;16.25;55.27;94742.41;5032187;28;20263;-80
2021/09/24 04:35:21;;;;;;;5.38;4.85;;;16.40;70.20;;;16.24;55.32;94754.03;5015780;28;20231;-80
2021/09/24 04:37:48;;;;;;;9.13;5.30;;;16.40;70.20;;;16.19;56.09;94754.72;5032741;28;20451;-80
2021/09/24 04:40:15;;;;;;;6.80;5.05;;;16.40;70.40;;;16.12;55.47;94744.22;5032246;28;20806;-80
2021/09/24 04:42:43;;;;;;;6.68;5.03;;;16.40;70.50;;;16.16;55.41;94752.53;5016604;28;20261;-80
2021/09/24 04:45:10;;;;;;;5.43;4.75;;;16.40;70.40;;;16.13;55.65;94750.34;5033889;28;20210;-81
2021/09/24 04:47:37;;;;;;;9.65;5.45;;;16.40;70.40;;;16.14;55.40;94758.03;5020958;28;20639;-81
2021/09/24 04:50:07;;;;;;;6.40;5.00;;;16.40;70.30;;;16.10;55.79;94766.66;5015426;28;20228;-80
2021/09/24 04:52:34;;;;;;;5.00;4.50;;;16.30;70.30;;;16.02;55.81;94761.75;5031891;28;20666;-80
2021/09/24 04:55:02;;;;;;;7.43;4.75;;;16.30;70.50;;;16.06;55.74;94784.84;5031647;28;20216;-79
2021/09/24 04:57:29;;;;;;;6.03;4.95;;;16.30;70.50;;;15.98;56.12;94775.41;5050369;28;20606;-79
2021/09/24 04:59:56;;;;;;;5.78;4.50;;;16.30;70.60;;;16.03;55.72;94787.13;5050213;28;20199;-79
2021/09/24 05:02:24;;;;;;;5.78;5.07;;;16.30;70.60;;;16.03;56.64;94795.06;5024436;28;20211;-79
2021/09/24 05:04:51;;;;;;;5.78;4.95;;;16.30;70.80;;;16.04;56.20;94794.03;5048397;28;20208;-79
2021/09/24 05:07:19;;;;;;;5.50;4.88;;;16.30;70.80;;;16.04;55.90;94797.50;5033646;28;20689;-80
2021/09/24 05:09:46;;;;;;;6.32;4.88;;;16.20;70.70;;;16.05;56.32;94788.53;5042457;28;20254;-79
2021/09/24 05:12:13;;;;;;;7.38;4.60;;;16.20;70.80;;;16.07;55.96;94799.69;5026035;28;20219;-79
2021/09/24 05:14:40;;;;;;;5.63;5.05;;;16.20;70.70;;;16.09;56.32;94799.47;5034268;28;20680;-80
2021/09/24 05:17:08;;;;;;;5.10;4.60;;;16.20;70.80;;;16.13;56.01;94801.41;5025966;28;20207;-79
2021/09/24 05:19:35;;;;;;;5.82;4.05;;;16.30;70.90;;;16.11;56.02;94798.22;5017995;28;20282;-80
2021/09/24 05:22:02;;;;;;;5.20;4.50;;;16.30;70.80;;;16.16;56.12;94806.25;5033655;28;20310;-78
2021/09/24 05:24:29;;;;;;;5.13;4.63;;;16.30;70.90;;;16.17;55.84;94813.16;5048247;28;20200;-79
2021/09/24 05:26:57;;;;;;;5.45;4.95;;;16.30;70.70;;;16.19;55.98;94812.13;5049433;28;20216;-80
2021/09/24 05:29:24;;;;;;;4.65;4.13;;;16.30;70.70;;;16.21;55.66;94813.53;5032863;28;20679;-81
2021/09/24 05:31:51;;;;;;;7.15;4.43;;;16.30;70.60;;;16.21;55.65;94816.16;5050827;28;20243;-80
2021/09/24 05:34:19;;;;;;;4.85;4.22;;;16.30;70.70;;;16.23;55.74;94822.00;5034740;28;20234;-80
2021/09/24 05:36:46;;;;;;;6.45;4.30;;;16.30;70.70;;;16.25;55.88;94825.25;5050902;28;20277;-79
2021/09/24 05:39:13;;;;;;;5.43;4.93;;;16.40;70.80;;;16.24;55.86;94825.47;5032444;28;20239;-80
2021/09/24 05:41:41;;;;;;;4.90;4.40;;;16.40;70.80;;;16.27;55.89;94822.34;5046705;28;20223;-79
2021/09/24 05:44:08;;;;;;;5.53;4.63;;;16.40;70.80;;;16.27;55.81;94825.00;5047841;28;20204;-79
2021/09/24 05:46:35;;;;;;;4.93;4.43;;;16.50;70.90;;;16.30;55.95;94821.91;5047016;28;20231;-79
2021/09/24 05:49:03;;;;;;;5.13;4.63;;;16.50;70.90;;;16.30;55.94;94828.00;5051337;28;20653;-80
2021/09/24 05:51:30;;;;;;;6.45;4.47;;;16.40;70.70;;;16.31;55.70;94826.19;5051179;28;20282;-79
2021/09/24 05:53:58;;;;;;;5.63;4.75;;;16.50;70.90;;;16.32;55.76;94827.78;5033564;28;20339;-80
2021/09/24 05:56:25;;;;;;;4.85;4.35;;;16.50;70.90;;;16.35;56.10;94829.16;5049731;28;20219;-79
2021/09/24 05:58:53;;;;;;;5.20;4.47;;;16.50;70.80;;;16.36;55.59;94836.09;5034598;28;20207;-79
2021/09/24 06:01:20;;;;;;;5.15;4.57;;;16.50;70.80;;;16.38;55.84;94836.63;5050911;28;20247;-80
2021/09/24 06:03:47;;;;;;;4.72;4.32;;;16.50;70.80;;;16.40;55.72;94832.72;5034686;28;20246;-80
2021/09/24 06:06:15;;;;;;;5.22;4.28;;;16.50;70.70;;;16.40;55.80;94842.53;5050711;28;20223;-79
2021/09/24 06:08:42;;;;;;;6.63;4.40;;;16.50;70.70;;;16.41;55.48;94844.13;5034154;28;20732;-79
2021/09/24 06:11:09;;;;;;;6.00;4.65;;;16.50;70.70;;;16.42;55.45;94848.41;5034087;28;20238;-80
2021/09/24 06:13:37;;;;;;;6.75;4.65;;;16.60;70.70;;;16.43;55.52;94857.91;5033688;28;20253;-80
2021/09/24 06:16:06;;;;;;;5.28;4.78;;;16.50;70.70;;;16.42;55.95;94848.41;5033604;28;20242;-80
2021/09/24 06:18:33;;;;;;;4.85;4.35;;;16.60;70.80;;;16.49;55.90;94859.69;5034485;28;20203;-79
2021/09/24 06:21:02;;;;;;;4.93;4.50;;;16.60;70.70;;;16.48;55.64;94858.06;5018241;28;20457;-80
2021/09/24 06:23:31;;;;;;;4.85;4.35;;;16.60;70.80;;;16.53;55.94;94857.34;5034384;28;20235;-79
2021/09/24 06:25:59;;;;;;;5.45;4.30;;;16.70;70.90;;;16.57;55.78;94855.88;5031934;28;20625;-80
2021/09/24 06:28:28;;;;;;;4.93;4.22;;;16.60;70.80;;;16.59;55.45;94859.91;5050393;28;20195;-79
2021/09/24 06:30:57;;;;;;;5.70;4.43;;;16.70;70.80;;;16.61;55.39;94864.94;5028775;28;20228;-79
2021/09/24 06:33:25;;;;;;;5.68;4.22;;;16.70;70.80;;;16.65;55.54;94866.13;5053432;28;20596;-79
2021/09/24 06:35:53;;;;;;;5.47;4.40;;;16.80;70.80;;;16.68;55.66;94875.44;5021396;28;20322;-79
2021/09/24 06:38:20;;;;;;;5.85;4.57;;;16.80;70.80;;;16.70;55.46;94868.88;5021458;28;20280;-79
2021/09/24 06:40:48;;;;;;;6.05;4.85;;;16.80;70.70;;;16.75;55.52;94870.84;5054329;28;20302;-80
2021/09/24 06:43:16;;;;;;;6.00;4.10;;;16.80;70.70;;;16.81;55.04;94869.91;5021335;28;20203;-80
2021/09/24 06:45:43;;;;;;;4.78;4.28;;;16.80;70.80;;;16.83;55.44;94870.47;5037619;28;20216;-79
2021/09/24 06:48:11;;;;;;;5.20;4.28;;;16.90;70.90;;;16.92;55.53;94871.75;5054272;28;20191;-81
2021/09/24 06:50:38;;;;;;;6.05;4.78;;;16.90;70.80;;;16.95;55.62;94863.38;5054037;28;20223;-79
2021/09/24 06:53:06;;;;;;;5.18;4.68;;;16.90;70.80;;;17.07;55.07;94871.28;5021174;28;20206;-79
2021/09/24 06:55:33;;;;;;;4.90;4.10;;;17.00;70.90;;;17.13;55.31;94874.84;5033477;28;20319;-80
2021/09/24 06:58:01;;;;;;;5.18;4.68;;;17.10;70.90;;;17.18;54.90;94869.63;5018092;28;20200;-80
2021/09/24 07:00:28;;;;;;;7.53;5.40;;;17.20;70.90;;;17.24;54.79;94871.34;5034056;28;20298;-81
2021/09/24 07:02:55;;;;;;;5.30;4.80;;;17.20;70.80;;;17.32;55.23;94866.72;5017783;28;20296;-81
2021/09/24 07:05:23;;;;;;;5.97;4.53;;;17.30;70.90;;;17.40;55.08;94872.44;5001389;28;20204;-79
2021/09/24 07:07:50;;;;;;;5.10;4.60;;;17.40;71.00;;;17.48;55.03;94881.91;5017621;28;20204;-79
2021/09/24 07:10:18;;;;;;;6.10;5.50;;;17.40;70.90;;;17.50;54.81;94871.06;5017454;28;20224;-79
2021/09/24 07:12:45;;;;;;;6.05;5.45;;;17.50;70.70;;;17.57;54.60;94864.56;5034191;28;20665;-81
2021/09/24 07:15:12;;;;;;;5.45;4.95;;;17.50;70.70;;;17.62;54.70;94892.22;5017265;28;20192;-80
2021/09/24 07:17:40;;;;;;;6.10;5.50;;;17.50;70.70;;;17.73;54.39;94870.16;5017553;28;20246;-80
2021/09/24 07:20:08;;;;;;;6.00;5.40;;;17.60;71.50;;;17.82;54.12;94866.09;5044088;28;20231;-81
2021/09/24 07:22:35;;;;;;;8.18;5.65;;;17.70;70.70;;;17.92;53.97;94868.09;5033692;28;20192;-80
2021/09/24 07:25:04;;;;;;;6.63;5.43;;;17.80;70.70;;;18.01;53.95;94866.69;5017275;28;20286;-81
2021/09/24 07:27:33;;;;;;;6.32;5.20;;;17.80;70.40;;;18.11;54.40;94879.31;5047824;28;20285;-81
2021/09/24 07:30:01;;;;;;;6.40;5.75;;;17.90;70.50;;;18.23;54.17;94868.66;5016698;28;20223;-81
2021/09/24 07:32:28;;;;;;;6.60;5.97;;;18.00;70.50;;;18.35;54.05;94871.22;5026509;28;20222;-80
2021/09/24 07:34:55;;;;;;;6.63;5.78;;;18.20;70.60;;;18.45;53.83;94883.84;5051740;28;20756;-80
2021/09/24 07:37:22;;;;;;;6.57;5.93;;;18.20;70.30;;;18.48;53.25;94878.88;5035483;28;20227;-81
2021/09/24 07:39:50;;;;;;;6.35;5.45;;;18.30;70.10;;;18.50;53.58;94881.28;5053503;28;20353;-80
2021/09/24 07:42:17;;;;;;;6.10;5.47;;;18.40;70.00;;;18.52;53.04;94885.28;5036966;28;20216;-80
2021/09/24 07:44:44;;;;;;;6.10;5.50;;;18.40;69.80;;;18.50;53.20;94889.25;5036621;28;20286;-80
2021/09/24 07:47:11;;;;;;;5.78;5.18;;;18.50;69.70;;;18.52;52.93;94889.81;5036371;28;20219;-79
2021/09/24 07:49:39;;;;;;;7.20;5.53;;;18.50;69.70;;;18.53;53.49;94899.41;5036806;28;20290;-80
2021/09/24 07:52:06;;;;;;;6.07;5.47;;;18.50;69.70;;;18.56;52.99;94912.97;5052702;28;20212;-80
2021/09/24 07:54:33;;;;;;;6.18;5.35;;;18.50;69.70;;;18.56;53.19;94907.66;5032490;28;20298;-80
2021/09/24 07:57:00;;;;;;;6.07;5.47;;;18.60;69.70;;;18.58;53.30;94903.97;4998461;28;20216;-79
2021/09/24 07:59:28;;;;;;;6.38;5.20;;;18.60;69.70;;;18.65;53.51;94896.63;5031166;28;20196;-80
2021/09/24 08:01:55;;;;;;;5.88;5.28;;;18.60;69.80;;;18.71;53.42;94895.66;5022031;28;20227;-80
2021/09/24 08:04:22;;;;;;;6.13;5.53;;;18.60;69.80;;;18.81;53.43;94916.25;5049045;28;20199;-80
2021/09/24 08:06:50;;;;;;;6.30;5.70;;;18.70;70.00;;;18.90;53.05;94896.19;5048820;28;20307;-79
2021/09/24 08:09:18;;;;;;;6.40;5.50;;;18.80;70.10;;;19.04;52.96;94907.31;5030863;28;20271;-80
2021/09/24 08:11:45;;;;;;;6.20;5.60;;;18.80;70.00;;;19.17;52.49;94893.66;5015906;28;20227;-81
2021/09/24 08:14:14;;;;;;;5.97;5.35;;;18.90;69.90;;;19.27;53.05;94890.31;5032132;28;20188;-81
2021/09/24 08:16:42;;;;;;;6.70;6.03;;;19.00;69.90;;;19.39;53.01;94922.13;4998776;28;20277;-80
2021/09/24 08:19:09;;;;;;;6.57;5.97;;;19.20;69.90;;;19.41;52.23;94917.38;4997736;28;20286;-81
2021/09/24 08:21:36;;;;;;;6.28;5.47;;;19.20;69.30;;;19.44;52.25;94918.72;5014134;28;20227;-81
2021/09/24 08:24:04;;;;;;;6.88;6.18;;;19.30;69.60;;;19.40;52.16;94905.13;5031497;28;20192;-81
2021/09/24 08:26:32;;;;;;;6.55;5.95;;;19.30;69.10;;;19.39;52.39;94900.06;5020942;28;20545;-80
2021/09/24 08:28:59;;;;;;;7.28;6.57;;;19.30;69.10;;;19.32;52.38;94902.88;5031577;28;20215;-80
2021/09/24 08:31:26;;;;;;;6.72;6.03;;;19.30;68.90;;;19.29;52.58;94906.06;5031996;28;20648;-80
2021/09/24 08:33:53;;;;;;;7.78;6.88;;;19.30;68.90;;;19.23;52.22;94917.69;5014943;28;20685;-80
2021/09/24 08:36:20;;;;;;;8.38;6.55;;;19.30;68.80;;;19.20;52.50;94917.13;5030306;28;20212;-80
2021/09/24 08:38:47;;;;;;;8.68;7.28;;;19.30;68.90;;;19.17;52.39;94925.56;5029273;28;20227;-80
2021/09/24 08:41:14;;;;;;;8.15;7.35;;;19.30;68.80;;;19.06;52.18;94910.53;5014722;28;20266;-80
2021/09/24 08:43:42;;;;;;;8.40;7.45;;;19.30;68.70;;;19.00;52.19;94927.47;5015427;28;20625;-80
2021/09/24 08:46:10;;;;;;;7.30;6.60;;;19.20;68.60;;;18.99;52.98;94936.47;5029671;28;20277;-80
2021/09/24 08:48:38;;;;;;;8.40;7.05;;;19.10;68.90;;;18.98;52.95;94937.53;5052035;28;20191;-79
2021/09/24 08:51:05;;;;;;;9.07;7.47;;;19.10;68.90;;;18.98;52.73;94925.06;5051589;28;20231;-79
2021/09/24 08:53:32;;;;;;;7.15;6.45;;;19.10;68.90;;;19.00;53.06;94927.47;5047024;28;20204;-80
2021/09/24 08:55:59;;;;;;;9.35;7.10;;;19.10;69.00;;;19.00;52.91;94930.13;5014124;28;20277;-81
2021/09/24 08:58:27;;;;;;;7.53;6.63;;;19.10;69.00;;;18.97;52.46;94936.75;5015652;28;20196;-80
2021/09/24 09:00:54;;;;;;;7.88;7.05;;;19.10;69.00;;;18.98;52.72;94940.19;5024995;28;20305;-80
2021/09/24 09:03:21;;;;;;;8.73;7.25;;;19.00;69.00;;;18.96;52.88;94932.47;5015488;28;20298;-81
2021/09/24 09:05:59;;;;;;;7.22;6.50;;;19.00;69.10;;;18.99;53.18;94949.78;5015135;28;20318;-81
2021/09/24 09:08:30;;;;;;;8.77;7.03;;;19.00;69.20;;;18.97;52.50;94935.91;5016018;28;20204;-80
2021/09/24 09:11:08;;;;;;;8.90;6.93;;;19.10;69.10;;;18.94;53.07;94944.41;5015478;28;20231;-81
2021/09/24 09:13:49;;;;;;;8.15;7.32;;;19.00;70.00;;;18.90;53.27;94938.72;5009469;28;20206;-80
2021/09/24 09:16:25;;;;;;;7.63;6.82;;;19.00;69.00;;;18.88;52.99;94941.63;5022614;28;20286;-80
2021/09/24 09:19:10;;;;;;;8.88;7.25;;;19.00;69.10;;;18.97;52.85;94926.09;5029377;28;20286;-81
2021/09/24 09:21:42;;;;;;;6.60;5.90;;;19.10;69.30;;;19.08;52.87;94936.88;5028041;28;20588;-81
2021/09/24 09:24:25;;;;;;;7.10;6.38;;;19.00;69.50;;;19.19;52.71;94912.84;5046127;28;20239;-81
2021/09/24 09:27:19;;;;;;;7.93;6.47;;;19.10;69.40;;;19.24;52.76;94935.22;5013740;28;20255;-81
2021/09/24 09:30:04;;;;;;;8.27;7.07;;;19.20;69.40;;;19.31;52.52;94919.88;5029278;28;20741;-80
2021/09/24 09:32:32;;;;;;;8.63;6.75;;;19.20;69.20;;;19.35;52.94;94931.66;5040517;28;20262;-81
2021/09/24 09:35:00;;;;;;;6.90;5.95;;;19.30;69.20;;;19.47;52.38;94923.53;5013170;28;20741;-81
2021/09/24 09:37:27;;;;;;;7.65;6.82;;;19.40;69.50;;;19.59;52.25;94907.47;5030731;28;20289;-80
2021/09/24 09:40:09;;;;;;;6.93;6.28;;;19.40;69.50;;;19.78;52.25;94911.41;5034493;28;20195;-80
2021/09/24 09:42:40;;;;;;;7.95;6.45;;;19.50;69.20;;;19.89;51.35;94936.31;5050299;28;20281;-81
2021/09/24 09:45:11;;;;;;;8.13;6.88;;;19.60;69.10;;;19.94;51.46;94916.94;5034667;28;20545;-80
2021/09/24 09:47:43;;;;;;;6.90;6.13;;;19.70;68.60;;;19.96;50.89;94922.81;5016957;28;20203;-80
2021/09/24 09:50:13;;;;;;;8.85;6.40;;;19.80;68.60;;;19.95;51.14;94919.34;5034387;28;20641;-80
2021/09/24 09:53:15;;;;;;;6.72;5.93;;;19.80;68.30;;;19.89;51.10;94911.56;5018365;28;20297;-80
2021/09/24 09:56:01;;;;;;;6.57;5.72;;;19.80;68.40;;;19.93;51.69;94917.97;5030561;28;20223;-81
2021/09/24 09:58:33;;;;;;;6.80;6.07;;;19.80;68.40;;;19.95;51.23;94914.00;5031266;28;20184;-80
2021/09/24 10:01:05;;;;;;;6.72;5.57;;;19.90;68.60;;;19.99;51.25;94920.47;4998368;28;20230;-80
2021/09/24 10:03:41;;;;;;;6.00;5.40;;;19.90;68.50;;;20.00;50.79;94942.53;5042022;28;20246;-80
2021/09/24 10:06:40;;;;;;;6.18;5.57;;;19.90;68.10;;;19.94;51.03;94924.91;5022321;28;20269;-81
2021/09/24 10:09:12;;;;;;;7.22;5.70;;;19.90;68.20;;;19.97;51.02;94932.41;5008005;28;20718;-81
2021/09/24 10:11:40;;;;;;;10.38;6.88;;;19.90;68.30;;;19.96;50.74;94936.13;5021652;28;20219;-80
2021/09/24 10:14:12;;;;;;;6.53;5.82;;;20.00;68.00;;;19.89;51.23;94925.66;5038424;28;20187;-81
2021/09/24 10:16:47;;;;;;;8.82;5.82;;;19.90;68.00;;;19.83;51.19;94930.16;5054641;28;20752;-80
2021/09/24 10:19:16;;;;;;;6.90;5.80;;;19.90;67.90;;;19.76;51.42;94939.31;5055132;28;20206;-81
2021/09/24 10:21:52;;;;;;;7.50;5.28;;;19.90;68.00;;;19.68;51.46;94932.59;5035517;28;20254;-81
2021/09/24 10:24:19;;;;;;;7.18;5.88;;;19.80;68.00;;;19.72;51.71;94935.56;5046249;28;20198;-81
2021/09/24 10:26:58;;;;;;;5.88;5.30;;;19.80;68.20;;;19.72;51.42;94930.25;5054344;28;20223;-81